Time;durP1;ratioP1;P1;durP2;ratioP2;P2;SDS_P1;SDS_P2;PMS_P1;PMS_P2;Temp;Humidity;BMP_temperature;BMP_pressure;BME280_temperature;BME280_humidity;BME280_pressure;Samples;Min_cycle;Max_cycle;Signal;HPM_P1;HPM_P2
2022/11/16 00:01:08;;;;;;;5.47;4.20;;;;;;;8.90;52.00;94875.22;4946553;28;20315;-64
2022/11/16 00:03:35;;;;;;;5.82;5.28;;;;;;;8.84;52.21;94884.03;4931248;29;20211;-65
2022/11/16 00:06:04;;;;;;;3.58;3.25;;;;;;;8.82;51.84;94886.09;4947420;28;20215;-64
2022/11/16 00:08:33;;;;;;;5.28;4.78;;;;;;;8.71;52.63;94879.19;4941573;28;20271;-64
2022/11/16 00:11:12;;;;;;;6.82;5.65;;;;;;;8.64;52.08;94889.03;4944892;28;20624;-64
2022/11/16 00:13:41;;;;;;;9.95;6.50;;;;;;;8.69;52.64;94872.63;4940677;28;20200;-65
2022/11/16 00:16:14;;;;;;;6.30;3.70;;;;;;;8.65;53.17;94879.38;4936244;28;20216;-65
2022/11/16 00:18:42;;;;;;;5.50;4.15;;;;;;;8.59;52.89;94881.13;4941989;28;20204;-65
2022/11/16 00:21:10;;;;;;;6.28;5.47;;;;;;;8.77;52.73;94882.66;4932531;29;20306;-65
2022/11/16 00:23:37;;;;;;;7.35;5.25;;;;;;;8.63;52.78;94882.22;4950363;29;20271;-64
2022/11/16 00:26:06;;;;;;;4.53;4.18;;;;;;;8.74;53.22;94870.09;4950364;28;20196;-65
2022/11/16 00:28:33;;;;;;;4.28;3.20;;;;;;;8.58;53.34;94871.72;4937381;29;20290;-64
2022/11/16 00:31:03;;;;;;;7.90;5.82;;;;;;;8.64;53.01;94860.31;4938495;28;20613;-65
2022/11/16 00:33:30;;;;;;;7.50;4.18;;;;;;;8.55;53.61;94863.56;4935780;28;20817;-64
2022/11/16 00:36:00;;;;;;;1.98;1.88;;;;;;;8.66;53.89;94860.06;4939490;28;20593;-65
2022/11/16 00:38:27;;;;;;;4.68;3.60;;;;;;;8.53;53.60;94861.22;4931234;29;20275;-65
2022/11/16 00:40:54;;;;;;;3.35;3.05;;;;;;;8.49;54.04;94854.88;4941101;28;20227;-64
2022/11/16 00:43:20;;;;;;;10.75;6.68;;;;;;;8.57;53.66;94854.47;4947775;28;20200;-64
2022/11/16 00:45:47;;;;;;;6.10;4.68;;;;;;;8.61;53.42;94847.72;4938876;29;20239;-64
2022/11/16 00:48:14;;;;;;;3.88;3.58;;;;;;;8.07;55.13;94851.19;4949443;28;20228;-64
2022/11/16 00:50:43;;;;;;;6.20;4.22;;;;;;;8.54;54.28;94852.34;4931008;29;20269;-63
2022/11/16 00:53:13;;;;;;;15.68;6.60;;;;;;;8.50;53.96;94851.25;4948663;29;20203;-64
2022/11/16 00:55:40;;;;;;;6.63;5.07;;;;;;;8.34;54.01;94852.09;4947091;28;20204;-65
2022/11/16 00:58:08;;;;;;;11.40;2.28;;;;;;;8.43;54.07;94842.78;4940862;28;20208;-66
2022/11/16 01:00:37;;;;;;;19.33;6.97;;;;;;;8.41;54.32;94829.19;4943149;28;20203;-66
2022/11/16 01:03:05;;;;;;;14.10;5.53;;;;;;;8.58;54.20;94832.53;4948748;29;20212;-67
2022/11/16 01:05:32;;;;;;;4.32;4.00;;;;;;;8.65;53.98;94837.59;4950261;28;20280;-65
2022/11/16 01:07:59;;;;;;;4.75;4.32;;;;;;;8.56;53.85;94839.06;4937022;28;20701;-65
2022/11/16 01:10:27;;;;;;;11.30;4.45;;;;;;;8.67;53.39;94836.28;4938268;29;20277;-65
2022/11/16 01:12:54;;;;;;;3.38;3.05;;;;;;;8.47;53.91;94824.81;4930817;29;20200;-64
2022/11/16 01:15:24;;;;;;;10.00;4.07;;;;;;;8.66;53.35;94829.50;4938851;28;20970;-65
2022/11/16 01:17:52;;;;;;;10.55;8.32;;;;;;;8.72;52.84;94822.50;4946004;29;20266;-65
2022/11/16 01:20:23;;;;;;;9.02;5.95;;;;;;;8.66;53.71;94821.66;4937709;29;20200;-65
2022/11/16 01:22:50;;;;;;;5.15;2.53;;;;;;;8.52;53.97;94825.66;4948265;28;20227;-64
2022/11/16 01:25:17;;;;;;;5.63;4.82;;;;;;;8.54;54.31;94815.78;4936535;28;20204;-65
2022/11/16 01:27:44;;;;;;;5.03;4.43;;;;;;;8.71;53.33;94811.28;4938662;28;20200;-65
2022/11/16 01:30:18;;;;;;;6.35;4.95;;;;;;;8.63;54.14;94811.69;4934320;29;20212;-65
2022/11/16 01:32:56;;;;;;;3.40;3.10;;;;;;;8.70;53.68;94814.94;4947331;29;20246;-67
2022/11/16 01:35:23;;;;;;;4.82;2.92;;;;;;;8.61;54.14;94787.63;4935898;29;20211;-65
2022/11/16 01:37:50;;;;;;;8.25;6.80;;;;;;;8.57;53.66;94809.28;4944825;29;20266;-65
2022/11/16 01:40:17;;;;;;;4.28;3.95;;;;;;;8.58;54.53;94819.47;4933454;28;20231;-65
2022/11/16 01:42:44;;;;;;;3.85;3.55;;;;;;;8.34;54.44;94806.94;4932482;29;20372;-65
2022/11/16 01:45:20;;;;;;;7.78;6.03;;;;;;;8.64;54.07;94813.28;4932288;29;20204;-65
2022/11/16 01:47:52;;;;;;;5.88;5.25;;;;;;;8.62;54.06;94799.69;4940073;29;20205;-67
2022/11/16 01:50:22;;;;;;;3.45;3.20;;;;;;;8.51;54.76;94813.66;4946699;28;20215;-66
2022/11/16 01:52:56;;;;;;;5.63;5.07;;;;;;;8.62;54.41;94810.13;4932648;29;20200;-66
2022/11/16 01:55:27;;;;;;;1.95;1.80;;;;;;;8.48;54.91;94806.31;4942366;29;20266;-66
2022/11/16 01:58:17;;;;;;;3.75;2.95;;;;;;;8.66;54.77;94816.44;4942139;29;20211;-66
2022/11/16 02:00:47;;;;;;;20.17;8.73;;;;;;;8.49;54.57;94815.72;4949490;28;20649;-64
2022/11/16 02:03:39;;;;;;;13.73;7.78;;;;;;;8.47;55.16;94804.72;4948182;28;20279;-64
2022/11/16 02:06:40;;;;;;;3.53;3.03;;;;;;;8.59;54.84;94796.78;4949068;29;20200;-65
2022/11/16 02:09:54;;;;;;;5.80;3.92;;;;;;;8.56;54.83;94792.81;4950162;29;20200;-65
2022/11/16 02:12:36;;;;;;;7.10;3.72;;;;;;;8.56;54.92;94787.59;4932210;29;20204;-65
2022/11/16 02:15:29;;;;;;;4.65;2.28;;;;;;;8.66;54.77;94779.09;4939663;29;20204;-64
2022/11/16 02:18:47;;;;;;;3.78;3.35;;;;;;;8.72;55.32;94786.72;4933898;29;20570;-64
2022/11/16 02:21:39;;;;;;;4.10;3.55;;;;;;;8.73;54.94;94779.66;4956177;28;20256;-64
2022/11/16 02:24:34;;;;;;;1.73;1.63;;;;;;;8.79;54.87;94786.53;4952529;28;20206;-64
2022/11/16 02:27:13;;;;;;;7.93;2.75;;;;;;;8.68;55.29;94788.25;4955216;28;20206;-64
2022/11/16 02:29:44;;;;;;;4.88;3.63;;;;;;;8.48;56.60;94789.84;4939371;28;20287;-65
2022/11/16 02:32:14;;;;;;;2.35;2.05;;;;;;;8.59;56.38;94787.13;4944488;28;20208;-64
2022/11/16 02:34:52;;;;;;;3.95;2.60;;;;;;;8.81;55.40;94785.22;4932566;29;20264;-64
2022/11/16 02:37:23;;;;;;;2.70;2.50;;;;;;;8.84;55.37;94779.53;4943509;28;20239;-66
2022/11/16 02:39:57;;;;;;;5.88;3.70;;;;;;;8.76;55.48;94756.47;4942688;28;20223;-65
2022/11/16 02:42:31;;;;;;;3.17;2.92;;;;;;;8.97;55.33;94778.34;4950641;29;20724;-65
2022/11/16 02:45:01;;;;;;;6.25;3.47;;;;;;;8.78;56.26;94759.63;4934909;28;20212;-66
2022/11/16 02:47:31;;;;;;;2.92;2.72;;;;;;;8.56;56.65;94774.53;4933242;29;20209;-63
2022/11/16 02:50:03;;;;;;;4.32;3.05;;;;;;;8.42;56.37;94734.19;4945440;29;20294;-65
2022/11/16 02:52:30;;;;;;;3.38;3.15;;;;;;;8.74;56.83;94768.22;4933704;29;20299;-64
2022/11/16 02:54:57;;;;;;;2.05;1.65;;;;;;;8.80;56.03;94764.59;4940632;29;20266;-65
2022/11/16 02:57:52;;;;;;;2.40;2.25;;;;;;;8.81;56.47;94772.16;4951395;28;20204;-64
2022/11/16 03:00:26;;;;;;;1.60;1.50;;;;;;;8.45;57.16;94772.84;4947382;29;20205;-65
2022/11/16 03:03:20;;;;;;;1.02;1.00;;;;;;;8.75;56.56;94761.94;4932580;29;20240;-64
2022/11/16 03:05:52;;;;;;;2.22;2.13;;;;;;;8.27;57.96;94767.94;4942815;28;20200;-65
2022/11/16 03:08:38;;;;;;;1.88;1.80;;;;;;;8.65;56.95;94765.22;4942598;28;20259;-64
2022/11/16 03:14:07;;;;;;;6.43;3.05;;;;;;;8.69;57.38;94750.66;4943123;29;20326;-65
2022/11/16 03:16:39;;;;;;;3.78;3.10;;;;;;;8.63;57.04;94749.00;4945559;28;20734;-64
2022/11/16 03:19:09;;;;;;;1.75;1.65;;;;;;;8.87;56.71;94752.09;4930740;29;20666;-67
2022/11/16 03:21:51;;;;;;;3.47;3.17;;;;;;;8.86;56.81;94753.94;4962118;28;20664;-65
2022/11/16 03:24:19;;;;;;;1.45;1.38;;;;;;;8.86;56.49;94748.72;4943649;28;20215;-64
2022/11/16 03:26:58;;;;;;;2.72;2.05;;;;;;;8.94;57.01;94753.47;4945770;28;20292;-66
2022/11/16 03:29:30;;;;;;;6.68;3.85;;;;;;;8.83;57.14;94736.13;4940434;29;20727;-65
2022/11/16 03:32:16;;;;;;;12.55;4.45;;;;;;;9.00;56.68;94752.50;4937291;29;20361;-64
2022/11/16 03:34:54;;;;;;;4.88;4.28;;;;;;;8.94;56.17;94748.25;4937326;28;20262;-64
2022/11/16 03:37:23;;;;;;;3.50;3.15;;;;;;;8.86;56.78;94740.09;4949861;29;20212;-65
2022/11/16 03:39:52;;;;;;;4.20;3.58;;;;;;;8.86;56.42;94753.94;4935897;29;20307;-65
2022/11/16 03:42:23;;;;;;;8.80;4.68;;;;;;;8.79;56.46;94748.16;4942403;29;20238;-64
2022/11/16 03:44:50;;;;;;;3.58;3.00;;;;;;;8.75;57.30;94739.22;4931818;29;20210;-65
2022/11/16 03:47:17;;;;;;;1.67;1.58;;;;;;;8.86;57.02;94746.13;4933396;29;20256;-64
2022/11/16 03:49:45;;;;;;;1.25;1.20;;;;;;;8.75;57.15;94749.66;4939468;28;20212;-64
2022/11/16 03:52:16;;;;;;;6.50;4.22;;;;;;;8.93;56.54;94751.91;4933429;29;20207;-65
2022/11/16 03:54:43;;;;;;;0.90;0.90;;;;;;;8.89;55.73;94750.03;4941920;28;20291;-63
2022/11/16 03:57:14;;;;;;;0.95;0.95;;;;;;;8.75;56.82;94739.22;4929753;29;20638;-65
2022/11/16 03:59:44;;;;;;;6.70;3.08;;;;;;;8.74;56.62;94734.25;4930574;29;20261;-63
2022/11/16 04:02:11;;;;;;;3.70;2.50;;;;;;;8.51;57.50;94737.94;4939726;29;20793;-63
2022/11/16 04:24:33;;;;;;;2.30;2.05;;;;;;;8.68;57.66;94720.34;4943552;28;20223;-64
2022/11/16 04:29:50;;;;;;;2.10;1.95;;;;;;;8.29;58.30;94711.06;4943060;29;20295;-64
2022/11/16 04:37:48;;;;;;;2.65;2.15;;;;;;;8.56;58.39;94711.84;4938457;29;20255;-64
2022/11/16 04:40:23;;;;;;;6.05;4.15;;;;;;;8.92;57.07;94703.28;4930534;29;20627;-63
2022/11/16 04:42:51;;;;;;;6.15;4.20;;;;;;;8.63;57.37;94698.63;4938783;28;20414;-65
2022/11/16 04:48:05;;;;;;;3.40;3.17;;;;;;;8.63;57.33;94696.00;4939063;29;20255;-64
2022/11/16 04:50:35;;;;;;;4.43;1.95;;;;;;;8.88;56.70;94719.72;4946780;28;20299;-65
2022/11/16 04:53:03;;;;;;;4.18;3.60;;;;;;;8.60;57.83;94705.13;4937669;29;20279;-64
2022/11/16 04:55:36;;;;;;;1.75;1.63;;;;;;;8.84;57.20;94701.16;4948905;28;20271;-65
2022/11/16 04:58:03;;;;;;;2.90;2.35;;;;;;;8.61;57.64;94705.91;4943429;28;20188;-63
2022/11/16 05:00:31;;;;;;;4.05;3.47;;;;;;;8.79;57.49;94697.72;4928787;29;20256;-64
2022/11/16 05:02:59;;;;;;;1.30;1.23;;;;;;;8.51;57.86;94693.53;4941191;28;20274;-65
2022/11/16 05:05:28;;;;;;;5.25;3.15;;;;;;;8.81;57.24;94701.63;4934879;29;20303;-65
2022/11/16 05:07:57;;;;;;;6.00;4.82;;;;;;;8.79;57.58;94687.25;4933618;29;20204;-65
2022/11/16 05:10:27;;;;;;;2.58;2.35;;;;;;;8.84;57.07;94695.94;4932917;29;20621;-63
2022/11/16 05:12:54;;;;;;;5.35;4.88;;;;;;;8.81;57.28;94691.19;4940048;29;20207;-64
2022/11/16 05:15:22;;;;;;;7.82;4.20;;;;;;;8.82;57.35;94689.38;4948893;28;20200;-65
2022/11/16 05:17:50;;;;;;;3.55;2.85;;;;;;;8.56;57.83;94680.53;4944968;28;20646;-65
2022/11/16 05:24:32;;;;;;;3.28;2.90;;;;;;;8.33;62.07;94690.47;4952083;28;20220;-64
2022/11/16 05:25:55;;;;;;;4.40;2.05;;;;;;;8.13;64.24;94689.22;4948962;28;20729;-64
2022/11/16 05:28:22;;;;;;;5.20;3.40;;;;;;;8.80;60.64;94694.84;4945217;28;20251;-66
2022/11/16 05:30:50;;;;;;;3.95;3.10;;;;;;;8.94;59.07;94690.00;4951980;29;20266;-65
2022/11/16 05:33:21;;;;;;;2.53;2.33;;;;;;;9.20;58.61;94694.34;4952184;29;20577;-66
2022/11/16 05:35:50;;;;;;;2.38;2.17;;;;;;;9.04;57.71;94685.63;4938053;29;20210;-68
2022/11/16 05:38:18;;;;;;;4.70;2.55;;;;;;;9.10;58.00;94700.28;4951996;28;20639;-69
2022/11/16 05:40:50;;;;;;;2.22;2.13;;;;;;;8.80;58.12;94692.22;4950571;28;20220;-66
2022/11/16 05:43:17;;;;;;;5.60;4.85;;;;;;;8.63;58.34;94673.28;4940744;29;20308;-69
2022/11/16 05:45:55;;;;;;;2.72;2.50;;;;;;;9.18;57.01;94692.00;4947348;28;20240;-67
2022/11/16 05:48:22;;;;;;;3.30;2.95;;;;;;;8.89;57.97;94695.16;4932395;29;20303;-68
2022/11/16 05:50:48;;;;;;;3.88;3.35;;;;;;;9.08;57.66;94689.34;4939974;29;20201;-68
2022/11/16 05:53:22;;;;;;;2.33;2.22;;;;;;;9.26;56.57;94693.38;4932492;29;20204;-66
2022/11/16 05:55:49;;;;;;;2.33;2.20;;;;;;;9.01;57.10;94696.56;4945712;29;20204;-67
2022/11/16 05:58:17;;;;;;;6.60;2.40;;;;;;;9.00;57.55;94694.22;4937911;29;20204;-67
2022/11/16 06:00:47;;;;;;;2.67;2.47;;;;;;;9.16;56.92;94699.31;4933329;29;20596;-67
2022/11/16 06:03:16;;;;;;;0.65;0.52;;;;;;;9.36;56.11;94690.81;4943528;28;20250;-67
2022/11/16 06:05:43;;;;;;;1.50;1.40;;;;;;;9.22;56.29;94692.28;4932022;29;20204;-65
2022/11/16 06:08:12;;;;;;;3.88;2.50;;;;;;;9.12;57.49;94697.47;4944987;28;21036;-70
2022/11/16 06:10:39;;;;;;;2.60;2.40;;;;;;;9.16;56.98;94704.53;4931962;29;20203;-68
2022/11/16 06:13:07;;;;;;;6.13;2.17;;;;;;;9.41;56.56;94692.66;4930866;29;20209;-66
2022/11/16 06:15:38;;;;;;;4.38;3.97;;;;;;;9.48;56.59;94701.06;4934087;29;20609;-69
2022/11/16 06:18:08;;;;;;;9.95;5.82;;;;;;;9.19;57.29;94693.59;4932161;29;20313;-67
2022/11/16 06:20:37;;;;;;;2.63;2.42;;;;;;;9.40;56.68;94691.09;4945763;29;20197;-64
2022/11/16 06:23:05;;;;;;;1.42;1.33;;;;;;;9.53;56.81;94698.47;4943133;29;20323;-65
2022/11/16 06:25:33;;;;;;;2.50;2.22;;;;;;;9.40;56.51;94696.34;4947652;28;20202;-65
2022/11/16 06:28:00;;;;;;;2.08;1.95;;;;;;;9.43;56.95;94693.22;4938386;29;20197;-65
2022/11/16 06:30:33;;;;;;;1.70;1.60;;;;;;;9.36;56.88;94687.41;4934619;29;20695;-64
2022/11/16 06:33:02;;;;;;;8.85;4.22;;;;;;;9.14;57.89;94696.16;4951008;28;20211;-65
2022/11/16 06:35:29;;;;;;;4.80;4.28;;;;;;;9.00;58.67;94705.47;4949095;29;20208;-66
2022/11/16 06:37:57;;;;;;;2.67;2.03;;;;;;;8.95;58.31;94691.56;4951116;28;20224;-65
2022/11/16 06:40:24;;;;;;;3.72;3.35;;;;;;;9.39;57.22;94694.75;4950843;29;20212;-66
2022/11/16 06:42:52;;;;;;;3.10;2.58;;;;;;;9.08;58.36;94702.41;4944795;28;20719;-68
2022/11/16 06:45:18;;;;;;;2.27;2.07;;;;;;;9.32;58.13;94681.91;4931188;29;20608;-66
2022/11/16 06:47:49;;;;;;;3.75;2.60;;;;;;;9.39;57.25;94689.53;4946722;28;20512;-65
2022/11/16 06:50:18;;;;;;;6.00;5.40;;;;;;;9.47;57.84;94694.28;4931258;29;20219;-66
2022/11/16 06:52:47;;;;;;;4.60;2.05;;;;;;;9.80;56.99;94688.69;4936882;29;20287;-66
2022/11/16 06:55:15;;;;;;;2.33;1.65;;;;;;;9.66;57.37;94692.81;4947621;28;20629;-66
2022/11/16 06:57:45;;;;;;;2.08;1.98;;;;;;;9.50;57.13;94672.84;4945814;28;20239;-66
2022/11/16 07:00:12;;;;;;;4.25;3.15;;;;;;;9.79;56.59;94671.41;4943203;29;20247;-64
2022/11/16 07:02:39;;;;;;;12.50;3.42;;;;;;;9.62;57.31;94678.66;4950524;28;20780;-65
2022/11/16 07:05:11;;;;;;;2.40;2.13;;;;;;;9.52;57.93;94681.22;4941214;28;20794;-66
2022/11/16 07:07:39;;;;;;;6.10;3.75;;;;;;;9.70;57.35;94684.22;4936918;29;20620;-66
2022/11/16 07:10:07;;;;;;;7.33;3.17;;;;;;;9.71;57.46;94677.13;4947206;28;20231;-65
2022/11/16 07:12:34;;;;;;;4.78;3.67;;;;;;;9.45;58.42;94678.06;4941719;28;20979;-66
2022/11/16 07:15:02;;;;;;;2.97;2.20;;;;;;;9.66;57.91;94682.34;4934635;29;20197;-68
2022/11/16 07:17:32;;;;;;;1.08;1.08;;;;;;;9.74;57.48;94679.25;4943853;29;20730;-66
2022/11/16 07:19:59;;;;;;;5.13;4.63;;;;;;;9.79;57.60;94671.41;4936697;29;20236;-65
2022/11/16 07:22:27;;;;;;;1.45;1.35;;;;;;;10.08;56.87;94675.19;4947640;28;20227;-65
2022/11/16 07:24:54;;;;;;;3.22;3.03;;;;;;;9.92;57.07;94671.75;4945864;28;20260;-65
2022/11/16 07:27:21;;;;;;;1.58;1.48;;;;;;;9.64;57.92;94681.81;4941036;29;20207;-66
2022/11/16 07:29:50;;;;;;;2.75;2.55;;;;;;;9.86;57.23;94678.00;4947362;29;20292;-66
2022/11/16 07:32:38;;;;;;;8.15;2.90;;;;;;;9.65;58.29;94663.22;4939792;29;20205;-66
2022/11/16 07:35:21;;;;;;;6.10;1.65;;;;;;;9.82;57.23;94676.13;4937144;29;20326;-65
2022/11/16 07:37:49;;;;;;;1.85;1.75;;;;;;;9.66;58.29;94661.41;4949877;29;20695;-65
2022/11/16 07:40:16;;;;;;;6.57;2.55;;;;;;;10.10;57.38;94657.44;4931362;29;20259;-65
2022/11/16 07:42:45;;;;;;;6.15;4.53;;;;;;;10.09;56.99;94655.88;4930629;29;20243;-66
2022/11/16 07:45:36;;;;;;;3.85;3.55;;;;;;;10.22;57.13;94655.34;4937333;28;20224;-67
2022/11/16 07:48:06;;;;;;;3.08;2.70;;;;;;;10.25;56.70;94665.34;4949809;28;20210;-67
2022/11/16 07:50:51;;;;;;;9.55;4.85;;;;;;;10.39;57.06;94661.16;4945403;28;20311;-67
2022/11/16 07:53:19;;;;;;;3.75;2.20;;;;;;;10.45;56.25;94665.38;4940591;29;20222;-67
2022/11/16 07:55:53;;;;;;;2.40;2.22;;;;;;;10.25;57.23;94654.88;4936338;28;20267;-66
2022/11/16 07:58:22;;;;;;;5.83;3.63;;;;;;;10.16;57.15;94659.03;4940181;28;20310;-68
2022/11/16 08:00:49;;;;;;;2.13;1.70;;;;;;;10.29;56.83;94650.69;4944665;28;20866;-67
2022/11/16 08:03:19;;;;;;;2.55;2.35;;;;;;;10.33;57.09;94656.94;4941112;28;20231;-67
2022/11/16 08:05:58;;;;;;;8.80;3.90;;;;;;;10.22;57.74;94655.34;4931706;29;20571;-66
2022/11/16 08:08:26;;;;;;;5.90;4.57;;;;;;;10.11;57.71;94659.78;4935354;28;20457;-67
2022/11/16 08:11:05;;;;;;;3.10;2.83;;;;;;;10.48;56.87;94653.56;4929850;29;20884;-66
2022/11/16 08:13:34;;;;;;;4.60;4.17;;;;;;;10.42;57.00;94647.53;4938791;28;20211;-68
2022/11/16 08:16:17;;;;;;;3.03;2.83;;;;;;;10.68;56.11;94641.28;4947505;28;20913;-67
2022/11/16 08:18:47;;;;;;;6.07;3.70;;;;;;;10.41;56.94;94634.72;4949470;28;20463;-67
2022/11/16 08:21:16;;;;;;;4.77;3.97;;;;;;;10.79;56.62;94634.22;4933183;29;20448;-67
2022/11/16 08:23:44;;;;;;;14.83;6.80;;;;;;;10.34;57.82;94636.81;4934522;29;20531;-66
2022/11/16 08:26:15;;;;;;;12.53;7.50;;;;;;;10.84;56.07;94627.13;4930212;29;20455;-68
2022/11/16 08:28:52;;;;;;;7.30;4.23;;;;;;;10.62;56.67;94623.22;4948895;28;20451;-65
2022/11/16 08:31:26;;;;;;;13.88;4.65;;;;;;;10.61;56.46;94617.19;4948784;28;20526;-67
2022/11/16 08:34:00;;;;;;;2.53;2.33;;;;;;;10.56;56.80;94622.44;4940726;28;20212;-67
2022/11/16 08:36:29;;;;;;;7.32;3.95;;;;;;;10.46;57.23;94617.16;4943266;28;20475;-65
2022/11/16 08:38:56;;;;;;;3.03;2.77;;;;;;;10.67;57.12;94617.97;4941686;29;20204;-67
2022/11/16 08:41:24;;;;;;;1.90;1.80;;;;;;;10.90;56.67;94612.19;4969369;28;20466;-69
2022/11/16 08:43:52;;;;;;;6.75;3.63;;;;;;;11.17;56.18;94610.84;4954676;28;20514;-67
2022/11/16 08:46:21;;;;;;;5.93;4.63;;;;;;;10.79;57.45;94614.03;4949708;28;20263;-67
2022/11/16 08:48:55;;;;;;;4.73;4.23;;;;;;;11.00;55.99;94612.19;4950078;29;21141;-66
2022/11/16 08:51:24;;;;;;;4.97;3.37;;;;;;;10.83;57.05;94607.22;4933534;29;20854;-67
2022/11/16 08:54:09;;;;;;;3.40;3.10;;;;;;;10.86;57.50;94604.06;4935184;29;20436;-66
2022/11/16 08:56:39;;;;;;;3.37;1.80;;;;;;;11.06;57.10;94604.03;4939861;29;20444;-66
2022/11/16 08:59:07;;;;;;;3.30;2.57;;;;;;;10.68;58.27;94601.19;4933530;29;20515;-67
2022/11/16 09:01:38;;;;;;;4.63;4.23;;;;;;;11.11;57.34;94601.41;4941906;28;20443;-67
2022/11/16 09:04:05;;;;;;;4.67;3.87;;;;;;;11.18;56.95;94601.16;4939160;28;20487;-66
2022/11/16 09:06:35;;;;;;;15.43;4.87;;;;;;;11.27;56.74;94598.75;4941632;29;20439;-67
2022/11/16 09:09:01;;;;;;;21.20;9.37;;;;;;;11.09;57.45;94607.97;4940735;28;20987;-67
2022/11/16 09:11:28;;;;;;;6.97;3.07;;;;;;;11.40;56.94;94603.44;4947888;29;20452;-67
2022/11/16 09:13:57;;;;;;;7.90;5.37;;;;;;;11.66;56.62;94599.72;4946045;28;20443;-66
2022/11/16 09:16:26;;;;;;;2.83;2.63;;;;;;;11.58;55.94;94600.25;4935836;28;20498;-68
2022/11/16 09:18:54;;;;;;;2.80;2.57;;;;;;;11.74;56.17;94586.03;4934706;29;20444;-67
2022/11/16 09:21:22;;;;;;;10.03;3.63;;;;;;;11.73;56.01;94576.59;4937195;29;20455;-66
2022/11/16 09:23:50;;;;;;;3.93;3.63;;;;;;;12.12;55.66;94580.03;4953651;28;20487;-67
2022/11/16 09:26:21;;;;;;;4.97;3.70;;;;;;;12.20;55.35;94571.59;4951930;28;20840;-67
2022/11/16 09:28:56;;;;;;;8.63;3.03;;;;;;;12.60;54.71;94554.75;4942583;29;20502;-67
2022/11/16 09:31:26;;;;;;;0.80;0.80;;;;;;;12.11;56.10;94552.22;4951690;28;20487;-66
2022/11/16 09:33:57;;;;;;;3.17;2.13;;;;;;;12.28;55.22;94541.34;4942304;29;20447;-66
2022/11/16 09:36:25;;;;;;;18.80;6.53;;;;;;;12.18;55.36;94542.19;4939799;29;20436;-68
2022/11/16 09:38:53;;;;;;;6.07;3.77;;;;;;;12.52;55.02;94537.72;4946215;28;20579;-67
2022/11/16 09:41:47;;;;;;;3.50;3.20;;;;;;;12.78;53.82;94533.81;4949735;28;20446;-66
2022/11/16 09:44:51;;;;;;;5.33;2.60;;;;;;;12.35;54.78;94526.84;4943967;29;20475;-67
2022/11/16 09:47:22;;;;;;;1.83;1.73;;;;;;;12.18;55.41;94521.19;4940078;28;20472;-67
2022/11/16 09:49:54;;;;;;;3.43;3.13;;;;;;;12.62;54.73;94521.88;4953612;28;20885;-66
2022/11/16 09:52:44;;;;;;;1.27;1.10;;;;;;;13.01;53.68;94504.13;4937427;29;20559;-67
2022/11/16 09:55:50;;;;;;;3.33;3.03;;;;;;;12.63;54.31;94510.28;4953385;28;20526;-68
2022/11/16 09:58:40;;;;;;;5.20;4.10;;;;;;;12.98;54.58;94509.97;4934346;28;20456;-67
2022/11/16 10:01:48;;;;;;;5.27;4.67;;;;;;;13.21;53.25;94503.16;4947106;29;20440;-67
2022/11/16 10:04:45;;;;;;;10.37;2.50;;;;;;;12.77;54.90;94500.69;4935540;29;20566;-66
2022/11/16 10:07:26;;;;;;;5.30;1.50;;;;;;;13.36;53.25;94484.56;4964314;28;20472;-66
2022/11/16 10:09:54;;;;;;;1.47;1.37;;;;;;;13.23;54.25;94489.75;4940546;29;20513;-67
2022/11/16 10:12:36;;;;;;;26.80;4.93;;;;;;;13.62;53.92;94477.13;4940498;28;20441;-67
2022/11/16 10:15:18;;;;;;;0.80;0.80;;;;;;;13.72;53.41;94471.72;4941306;28;20530;-66
2022/11/16 10:17:48;;;;;;;8.13;2.93;;;;;;;13.36;55.37;94462.75;4948161;28;20448;-67
2022/11/16 10:20:39;;;;;;;3.60;3.10;;;;;;;14.20;53.79;94459.94;4943431;28;20467;-66
2022/11/16 10:23:20;;;;;;;4.03;2.70;;;;;;;14.10;53.12;94446.94;4952390;28;20507;-68
2022/11/16 10:25:54;;;;;;;3.23;2.87;;;;;;;14.17;52.83;94449.97;4952676;29;20455;-66
2022/11/16 10:28:51;;;;;;;2.60;1.30;;;;;;;14.50;51.60;94443.66;4934571;28;20440;-66
2022/11/16 10:31:27;;;;;;;3.60;3.30;;;;;;;14.80;50.16;94445.75;4934080;29;21047;-67
2022/11/16 10:33:57;;;;;;;0.80;0.80;;;;;;;14.40;50.32;94425.38;4952791;28;20569;-67
2022/11/16 10:36:29;;;;;;;4.80;4.33;;;;;;;14.85;50.32;94419.25;4950922;28;20478;-67
2022/11/16 10:38:59;;;;;;;4.97;3.97;;;;;;;14.72;50.63;94411.38;4940752;29;20837;-67
2022/11/16 10:41:40;;;;;;;4.47;4.07;;;;;;;14.29;51.66;94418.69;4952019;28;20448;-68
2022/11/16 10:44:20;;;;;;;4.47;4.00;;;;;;;14.78;50.88;94421.50;4941648;29;20479;-65
2022/11/16 10:47:03;;;;;;;4.13;3.83;;;;;;;14.32;51.16;94418.16;4938040;28;20476;-66
2022/11/16 10:49:39;;;;;;;3.60;2.80;;;;;;;14.52;51.20;94420.44;4952049;28;21025;-66
2022/11/16 10:52:06;;;;;;;5.00;1.77;;;;;;;14.12;52.16;94418.44;4935756;28;20977;-67
2022/11/16 10:54:33;;;;;;;1.70;1.60;;;;;;;14.68;50.26;94416.44;4945985;28;20471;-67
2022/11/16 10:57:07;;;;;;;1.00;0.93;;;;;;;14.64;50.99;94401.47;4933063;28;21152;-67
2022/11/16 10:59:52;;;;;;;6.37;3.53;;;;;;;14.73;51.57;94400.50;4950592;28;20451;-66
2022/11/16 11:02:18;;;;;;;7.80;4.13;;;;;;;15.25;49.63;94405.25;4952109;28;20907;-65
2022/11/16 11:04:59;;;;;;;5.43;3.17;;;;;;;14.68;50.52;94390.06;4945546;28;20567;-67
2022/11/16 11:07:41;;;;;;;1.77;1.67;;;;;;;15.02;50.55;94379.09;4946780;29;20458;-66
2022/11/16 11:10:29;;;;;;;1.90;1.67;;;;;;;15.63;49.14;94379.41;4942909;28;20448;-66
2022/11/16 11:13:18;;;;;;;8.70;4.07;;;;;;;15.53;48.80;94378.88;4946413;28;20456;-66
2022/11/16 11:15:46;;;;;;;36.53;4.80;;;;;;;15.78;48.10;94368.47;4945052;28;20455;-66
2022/11/16 11:18:24;;;;;;;2.13;1.87;;;;;;;15.79;48.27;94356.06;4946126;28;20564;-66
2022/11/16 11:21:14;;;;;;;8.13;4.07;;;;;;;15.96;48.58;94356.19;4944519;29;20514;-67
2022/11/16 11:23:52;;;;;;;1.33;1.27;;;;;;;15.90;48.03;94346.81;4955941;28;20495;-67
2022/11/16 11:26:37;;;;;;;1.17;1.17;;;;;;;15.98;48.00;94351.38;4951251;28;20448;-67
2022/11/16 11:29:19;;;;;;;1.60;1.50;;;;;;;15.63;48.32;94315.25;4951767;28;20518;-65
2022/11/16 11:31:50;;;;;;;1.87;1.73;;;;;;;16.27;47.79;94330.56;4946728;28;20445;-66
2022/11/16 11:34:24;;;;;;;2.47;2.30;;;;;;;15.93;48.35;94330.38;4943588;29;20525;-67
2022/11/16 11:36:56;;;;;;;0.50;0.50;;;;;;;16.17;47.41;94328.94;4937542;28;20462;-67
2022/11/16 11:39:23;;;;;;;1.70;1.60;;;;;;;16.08;48.30;94329.97;4940060;28;20452;-66
2022/11/16 11:42:16;;;;;;;1.97;1.83;;;;;;;16.03;47.43;94325.63;4932138;29;20443;-66
2022/11/16 11:44:53;;;;;;;1.43;1.33;;;;;;;16.03;47.75;94309.75;4932392;29;20487;-66
2022/11/16 11:48:00;;;;;;;1.17;1.07;;;;;;;16.04;48.00;94316.59;4938474;29;20570;-67
2022/11/16 11:50:39;;;;;;;2.50;2.30;;;;;;;16.24;46.87;94315.28;4946019;28;20454;-67
2022/11/16 11:53:09;;;;;;;6.60;3.40;;;;;;;16.32;46.95;94311.91;4940012;28;20538;-65
2022/11/16 11:55:36;;;;;;;4.90;2.93;;;;;;;16.10;47.44;94304.81;4950594;29;20490;-68
2022/11/16 11:58:04;;;;;;;2.83;2.63;;;;;;;15.81;47.76;94282.56;4943647;28;20543;-67
2022/11/16 12:00:59;;;;;;;8.53;2.63;;;;;;;16.35;47.13;94289.38;4943586;28;20566;-66
2022/11/16 12:03:41;;;;;;;2.40;2.30;;;;;;;15.82;47.87;94286.78;4940811;29;20475;-66
2022/11/16 12:06:21;;;;;;;2.23;1.30;;;;;;;16.06;47.11;94276.63;4933700;28;20539;-67
2022/11/16 12:09:21;;;;;;;1.47;1.37;;;;;;;16.43;47.37;94286.75;4943555;28;20478;-66
2022/11/16 12:11:57;;;;;;;1.13;1.13;;;;;;;16.06;48.02;94281.94;4951395;28;20521;-67
2022/11/16 12:14:54;;;;;;;4.40;3.10;;;;;;;15.60;48.81;94284.91;4936953;28;20547;-67
2022/11/16 12:17:21;;;;;;;1.07;1.07;;;;;;;15.97;48.43;94278.47;4950692;28;20443;-67
2022/11/16 12:20:14;;;;;;;2.90;1.17;;;;;;;16.21;47.69;94268.31;4950710;28;20485;-67
2022/11/16 12:22:47;;;;;;;2.30;2.20;;;;;;;15.83;47.71;94277.78;4937099;28;20510;-67
2022/11/16 12:25:55;;;;;;;1.07;1.07;;;;;;;16.09;47.59;94270.75;4950312;28;20585;-66
2022/11/16 12:28:40;;;;;;;2.27;2.10;;;;;;;15.82;47.62;94265.66;4963459;28;20507;-66
2022/11/16 12:31:31;;;;;;;2.13;1.97;;;;;;;16.08;47.75;94263.91;4950375;28;20518;-66
2022/11/16 12:34:21;;;;;;;2.33;2.03;;;;;;;15.84;47.48;94263.47;4931310;29;20876;-66
2022/11/16 12:37:04;;;;;;;5.93;1.73;;;;;;;16.06;46.93;94244.94;4931329;29;20444;-66
2022/11/16 12:39:43;;;;;;;6.33;2.00;;;;;;;16.13;47.03;94239.97;4943632;28;20457;-67
2022/11/16 12:42:29;;;;;;;24.53;2.53;;;;;;;16.30;46.67;94240.06;4944906;28;20452;-67
2022/11/16 12:45:18;;;;;;;5.70;4.53;;;;;;;15.96;47.27;94245.22;4945999;28;20494;-66